createdAt,value
2023-02-21T00:00:15.373Z,-0.83
2023-02-21T00:01:15.586Z,-0.39
2023-02-21T00:02:15.400Z,-0.56
2023-02-21T00:03:15.384Z,-0.39
2023-02-21T00:04:15.373Z,-0.56
2023-02-21T00:05:15.452Z,-0.67
2023-02-21T00:06:15.387Z,-0.83
2023-02-21T00:07:15.381Z,-1
2023-02-21T00:08:15.377Z,-1
2023-02-21T00:09:15.381Z,-0.83
2023-02-21T00:10:15.387Z,-0.67
2023-02-21T00:11:15.720Z,-1.11
2023-02-21T00:12:15.383Z,-1.11
2023-02-21T00:13:15.387Z,-0.83
2023-02-21T00:14:15.407Z,-1.28
2023-02-21T00:15:15.384Z,-0.83
2023-02-21T00:16:15.432Z,-1.28
2023-02-21T00:17:15.387Z,-1
2023-02-21T00:18:15.385Z,-1.11
2023-02-21T00:19:15.384Z,-0.83
2023-02-21T00:20:17.951Z,-0.83
2023-02-21T00:21:15.575Z,-0.83
2023-02-21T00:22:15.396Z,-0.56
2023-02-21T00:23:15.385Z,-0.56
2023-02-21T00:24:15.402Z,-0.39
2023-02-21T00:25:15.406Z,-1
2023-02-21T00:26:15.405Z,-0.67
2023-02-21T00:27:15.397Z,-0.67
2023-02-21T00:28:15.389Z,-0.39
2023-02-21T00:29:15.385Z,-0.56
2023-02-21T00:30:15.469Z,-0.83
2023-02-21T00:31:15.679Z,-0.83
2023-02-21T00:32:15.425Z,-1.28
2023-02-21T00:33:15.527Z,-1.28
2023-02-21T00:34:15.411Z,-1.44
2023-02-21T00:35:15.399Z,-1.83
2023-02-21T00:36:15.411Z,-2
2023-02-21T00:37:15.406Z,-1.83
2023-02-21T00:38:15.401Z,-1.83
2023-02-21T00:39:15.405Z,-1.67
2023-02-21T00:40:15.391Z,-1.56
2023-02-21T00:41:15.691Z,-1.67
2023-02-21T00:42:15.405Z,-1.28
2023-02-21T00:43:15.419Z,-1.56
2023-02-21T00:44:15.388Z,-1.11
2023-02-21T00:45:15.415Z,-1.56
2023-02-21T00:46:15.518Z,-0.83
2023-02-21T00:47:15.395Z,-1.11
2023-02-21T00:48:15.397Z,-1
2023-02-21T00:49:15.410Z,-1
2023-02-21T00:50:15.405Z,-0.83
2023-02-21T00:51:15.668Z,-0.83
2023-02-21T00:52:15.422Z,-1.11
2023-02-21T00:53:15.433Z,-1
2023-02-21T00:54:15.416Z,-1.11
2023-02-21T00:55:15.422Z,-0.83
2023-02-21T00:56:15.412Z,-0.56
2023-02-21T00:57:15.404Z,-0.56
2023-02-21T00:58:15.411Z,-0.83
2023-02-21T00:59:15.426Z,-0.67
2023-02-21T01:00:15.408Z,-0.39
2023-02-21T01:01:15.763Z,-0.67
2023-02-21T01:02:15.453Z,-0.83
2023-02-21T01:03:15.408Z,-1
2023-02-21T01:04:15.456Z,-1.83
2023-02-21T01:05:15.407Z,-1.44
2023-02-21T01:06:15.442Z,-1.44
2023-02-21T01:07:15.418Z,-1.28
2023-02-21T01:08:15.414Z,-1.83
2023-02-21T01:09:15.428Z,-1.67
2023-02-21T01:10:15.415Z,-1.67
2023-02-21T01:11:15.653Z,-1.56
2023-02-21T01:12:15.422Z,-1.56
2023-02-21T01:13:15.420Z,-1.28
2023-02-21T01:14:15.430Z,-1.67
2023-02-21T01:15:15.426Z,-1.56
2023-02-21T01:16:15.424Z,-1.67
2023-02-21T01:17:15.435Z,-1.44
2023-02-21T01:18:15.461Z,-1.56
2023-02-21T01:19:15.428Z,-1.67
2023-02-21T01:20:15.433Z,-1.83
2023-02-21T01:21:15.647Z,-1.83
2023-02-21T01:22:15.428Z,-1.67
2023-02-21T01:23:15.426Z,-1.67
2023-02-21T01:24:15.434Z,-1.67
2023-02-21T01:25:15.453Z,-2
2023-02-21T01:26:15.438Z,-2
2023-02-21T01:27:15.433Z,-1.83
2023-02-21T01:28:15.432Z,-1.67
2023-02-21T01:29:15.434Z,-1.67
2023-02-21T01:30:15.481Z,-1.67
2023-02-21T01:31:15.804Z,-1.56
2023-02-21T01:32:15.499Z,-1.56
2023-02-21T01:33:15.443Z,-1.56
2023-02-21T01:34:15.465Z,-1.83
2023-02-21T01:35:15.453Z,-1.83
2023-02-21T01:36:15.436Z,-1.67
2023-02-21T01:37:15.442Z,-1.83
2023-02-21T01:38:15.457Z,-2
2023-02-21T01:39:15.459Z,-2.17
2023-02-21T01:40:15.451Z,-2.17
2023-02-21T01:41:15.740Z,-2.17
2023-02-21T01:42:15.453Z,-2.17
2023-02-21T01:43:15.437Z,-2
2023-02-21T01:44:15.460Z,-2.44
2023-02-21T01:45:15.439Z,-2
2023-02-21T01:46:15.574Z,-2
2023-02-21T01:47:15.444Z,-1.67
2023-02-21T01:48:15.464Z,-1.67
2023-02-21T01:49:15.447Z,-1.83
2023-02-21T01:50:15.462Z,-1.83
2023-02-21T01:51:15.723Z,-1.67
2023-02-21T01:52:15.435Z,-1.83
2023-02-21T01:53:15.454Z,-1.44
2023-02-21T01:54:15.454Z,-1.56
2023-02-21T01:55:15.465Z,-1.56
2023-02-21T01:56:15.446Z,-1.83
2023-02-21T01:57:15.455Z,-1.67
2023-02-21T01:58:15.458Z,-1.56
2023-02-21T01:59:15.461Z,-2.44
2023-02-21T02:00:15.447Z,-2.17
2023-02-21T02:01:15.743Z,-2.17
2023-02-21T02:02:15.457Z,-2.44
2023-02-21T02:03:15.464Z,-2.17
2023-02-21T02:04:15.504Z,-2.17
2023-02-21T02:05:15.475Z,-2
2023-02-21T02:06:15.491Z,-2.17
2023-02-21T02:07:15.462Z,-2.17
2023-02-21T02:08:15.498Z,-1.83
2023-02-21T02:09:15.465Z,-1.83
2023-02-21T02:10:15.474Z,-2
2023-02-21T02:11:15.765Z,-1.67
2023-02-21T02:12:15.468Z,-1.67
2023-02-21T02:13:15.465Z,-1.83
2023-02-21T02:14:15.467Z,-1.56
2023-02-21T02:15:15.470Z,-1.56
2023-02-21T02:16:15.490Z,-1.28
2023-02-21T02:17:16.630Z,-1.56
2023-02-21T02:18:15.469Z,-1.56
2023-02-21T02:19:15.485Z,-2.17
2023-02-21T02:20:15.478Z,-2.17
2023-02-21T02:21:15.723Z,-1.67
2023-02-21T02:22:15.495Z,-1.83
2023-02-21T02:23:15.480Z,-1.83
2023-02-21T02:24:15.465Z,-2.17
2023-02-21T02:25:15.466Z,-2.17
2023-02-21T02:26:15.493Z,-1.83
2023-02-21T02:27:15.480Z,-1.67
2023-02-21T02:28:15.492Z,-1.83
2023-02-21T02:29:15.484Z,-2
2023-02-21T02:30:15.490Z,-1.83
2023-02-21T02:31:15.805Z,-2.17
2023-02-21T02:32:15.538Z,-2.28
2023-02-21T02:33:15.494Z,-2.72
2023-02-21T02:34:15.498Z,-2.72
2023-02-21T02:35:15.479Z,-2.72
2023-02-21T02:36:15.484Z,-2.28
2023-02-21T02:37:15.472Z,-2.89
2023-02-21T02:38:15.523Z,-2.17
2023-02-21T02:39:15.503Z,-1.83
2023-02-21T02:40:15.480Z,-2
2023-02-21T02:41:15.743Z,-2
2023-02-21T02:42:15.487Z,-2.28
2023-02-21T02:43:15.488Z,-2.17
2023-02-21T02:44:15.489Z,-2.44
2023-02-21T02:45:15.487Z,-2.44
2023-02-21T02:46:15.519Z,-2.28
2023-02-21T02:47:15.484Z,-2.61
2023-02-21T02:48:15.493Z,-2.61
2023-02-21T02:49:15.487Z,-2.61
2023-02-21T02:50:15.485Z,-2.61
2023-02-21T02:51:15.915Z,-2.61
2023-02-21T02:52:15.487Z,-1.83
2023-02-21T02:53:15.493Z,-1.67
2023-02-21T02:54:15.509Z,-1.67
2023-02-21T02:55:15.485Z,-1.83
2023-02-21T02:56:15.488Z,-2
2023-02-21T02:57:15.489Z,-2.28
2023-02-21T02:58:15.484Z,-2
2023-02-21T02:59:15.495Z,-1.67
2023-02-21T03:00:15.491Z,-1.28
2023-02-21T03:01:15.853Z,-1.44
2023-02-21T03:02:15.489Z,-1.44
2023-02-21T03:03:15.535Z,-1.67
2023-02-21T03:04:15.490Z,-1.67
2023-02-21T03:05:15.497Z,-2
2023-02-21T03:06:15.480Z,-2.17
2023-02-21T03:07:15.499Z,-2.17
2023-02-21T03:08:15.488Z,-2.17
2023-02-21T03:09:15.550Z,-2.17
2023-02-21T03:10:15.530Z,-2.17
2023-02-21T03:11:15.755Z,-2
2023-02-21T03:12:15.493Z,-2.17
2023-02-21T03:13:15.505Z,-2.44
2023-02-21T03:14:15.487Z,-2.28
2023-02-21T03:15:15.495Z,-2.28
2023-02-21T03:16:15.526Z,-2
2023-02-21T03:17:15.504Z,-1.67
2023-02-21T03:18:15.496Z,-2
2023-02-21T03:19:15.493Z,-2
2023-02-21T03:20:15.495Z,-2.44
2023-02-21T03:21:15.741Z,-2.17
2023-02-21T03:22:15.499Z,-2.44
2023-02-21T03:23:15.505Z,-2.89
2023-02-21T03:24:15.513Z,-2.44
2023-02-21T03:25:15.501Z,-2.72
2023-02-21T03:26:15.531Z,-2.72
2023-02-21T03:27:15.494Z,-2.89
2023-02-21T03:28:15.495Z,-3.17
2023-02-21T03:29:15.496Z,-3.28
2023-02-21T03:30:15.540Z,-3.17
2023-02-21T03:31:15.791Z,-3.06
2023-02-21T03:32:15.545Z,-2.89
2023-02-21T03:33:15.502Z,-3.17
2023-02-21T03:34:15.498Z,-2.72
2023-02-21T03:35:15.502Z,-2.17
2023-02-21T03:36:15.519Z,-1.83
2023-02-21T03:37:15.513Z,-2
2023-02-21T03:38:15.498Z,-2.17
2023-02-21T03:39:15.508Z,-1.67
2023-02-21T03:40:15.500Z,-1.67
2023-02-21T03:41:15.852Z,-2.17
2023-02-21T03:42:15.520Z,-2.28
2023-02-21T03:43:15.502Z,-2.17
2023-02-21T03:44:15.507Z,-2.17
2023-02-21T03:45:15.503Z,-2.28
2023-02-21T03:46:15.517Z,-2.61
2023-02-21T03:47:15.506Z,-2.44
2023-02-21T03:48:17.766Z,-2.61
2023-02-21T03:49:15.512Z,-2.89
2023-02-21T03:50:15.503Z,-3.61
2023-02-21T03:51:15.746Z,-2.72
2023-02-21T03:52:15.511Z,-3.28
2023-02-21T03:53:15.523Z,-2.89
2023-02-21T03:54:15.509Z,-2.72
2023-02-21T03:55:15.497Z,-3.06
2023-02-21T03:56:15.525Z,-2.61
2023-02-21T03:57:15.539Z,-2.44
2023-02-21T03:58:15.540Z,-2.44
2023-02-21T03:59:15.554Z,-2.28
2023-02-21T04:00:15.526Z,-2.44
2023-02-21T04:01:15.867Z,-2.17
2023-02-21T04:02:15.573Z,-2.44
2023-02-21T04:03:15.511Z,-2.61
2023-02-21T04:04:15.513Z,-2.72
2023-02-21T04:05:15.513Z,-2.72
2023-02-21T04:06:15.517Z,-3.28
2023-02-21T04:07:15.510Z,-3.06
2023-02-21T04:08:15.525Z,-3.17
2023-02-21T04:09:15.524Z,-3.17
2023-02-21T04:10:15.518Z,-2.61
2023-02-21T04:11:15.899Z,-2.61
2023-02-21T04:12:15.529Z,-2.28
2023-02-21T04:13:15.515Z,-2.61
2023-02-21T04:14:15.546Z,-2.61
2023-02-21T04:15:15.517Z,-2.61
2023-02-21T04:16:15.551Z,-3.17
2023-02-21T04:17:15.519Z,-3.06
2023-02-21T04:18:15.522Z,-2.72
2023-02-21T04:19:15.518Z,-2.61
2023-02-21T04:20:15.510Z,-2.17
2023-02-21T04:21:15.781Z,-2
2023-02-21T04:22:15.542Z,-1.67
2023-02-21T04:23:15.520Z,-2.17
2023-02-21T04:24:15.531Z,-2.44
2023-02-21T04:25:15.536Z,-2.61
2023-02-21T04:26:15.513Z,-2.61
2023-02-21T04:27:15.540Z,-2.61
2023-02-21T04:28:15.522Z,-2.89
2023-02-21T04:29:15.527Z,-2.61
2023-02-21T04:30:15.588Z,-2.72
2023-02-21T04:31:15.862Z,-2.89
2023-02-21T04:32:15.669Z,-2.89
2023-02-21T04:33:15.541Z,-3.06
2023-02-21T04:34:15.534Z,-2.89
2023-02-21T04:35:15.544Z,-2.61
2023-02-21T04:36:15.520Z,-2.89
2023-02-21T04:37:15.515Z,-2.61
2023-02-21T04:38:15.524Z,-3.17
2023-02-21T04:39:15.522Z,-2.72
2023-02-21T04:40:15.564Z,-2.61
2023-02-21T04:41:15.873Z,-2.61
2023-02-21T04:42:15.529Z,-2.72
2023-02-21T04:43:15.543Z,-2.61
2023-02-21T04:44:15.528Z,-2.89
2023-02-21T04:45:15.535Z,-3.06
2023-02-21T04:46:15.561Z,-3.06
2023-02-21T04:47:15.523Z,-3.44
2023-02-21T04:48:15.525Z,-2.61
2023-02-21T04:49:15.531Z,-2.72
2023-02-21T04:50:15.529Z,-2.72
2023-02-21T04:51:15.709Z,-2.89
2023-02-21T04:52:15.537Z,-2.72
2023-02-21T04:53:15.531Z,-2.72
2023-02-21T04:54:15.532Z,-2.61
2023-02-21T04:55:15.536Z,-2.61
2023-02-21T04:56:15.578Z,-2.61
2023-02-21T04:57:15.550Z,-2.61
2023-02-21T04:58:15.525Z,-2.72
2023-02-21T04:59:15.528Z,-2.44
2023-02-21T05:00:15.526Z,-2.17
2023-02-21T05:01:15.941Z,-2.28
2023-02-21T05:02:15.577Z,-2.61
2023-02-21T05:03:15.544Z,-2.72
2023-02-21T05:04:15.580Z,-3.06
2023-02-21T05:05:15.695Z,-3.06
2023-02-21T05:06:15.530Z,-3.06
2023-02-21T05:07:15.535Z,-2.72
2023-02-21T05:08:15.545Z,-2.61
2023-02-21T05:09:15.530Z,-3.28
2023-02-21T05:10:15.519Z,-3.17
2023-02-21T05:11:15.856Z,-3.17
2023-02-21T05:12:15.538Z,-3.28
2023-02-21T05:13:15.530Z,-3.17
2023-02-21T05:14:15.532Z,-3.17
2023-02-21T05:15:15.529Z,-3.06
2023-02-21T05:16:15.582Z,-3.17
2023-02-21T05:17:15.532Z,-3.17
2023-02-21T05:18:15.644Z,-3.17
2023-02-21T05:19:15.526Z,-3.06
2023-02-21T05:20:15.532Z,-3.06
2023-02-21T05:21:15.796Z,-3.06
2023-02-21T05:22:15.531Z,-3.06
2023-02-21T05:23:15.538Z,-3.28
2023-02-21T05:24:15.536Z,-3.17
2023-02-21T05:25:15.535Z,-3.28
2023-02-21T05:26:15.528Z,-3.28
2023-02-21T05:27:15.583Z,-3.61
2023-02-21T05:28:15.529Z,-3.61
2023-02-21T05:29:15.525Z,-3.61
2023-02-21T05:30:15.544Z,-3.44
2023-02-21T05:31:15.986Z,-3.61
2023-02-21T05:32:15.582Z,-3.61
2023-02-21T05:33:15.528Z,-3.44
2023-02-21T05:34:15.556Z,-3.28
2023-02-21T05:35:15.534Z,-2.61
2023-02-21T05:36:15.548Z,-3.06
2023-02-21T05:37:15.541Z,-3.06
2023-02-21T05:38:15.549Z,-3.06
2023-02-21T05:39:15.563Z,-2.89
2023-02-21T05:40:15.544Z,-3.06
2023-02-21T05:41:15.964Z,-2.89
2023-02-21T05:42:15.529Z,-2.72
2023-02-21T05:43:15.542Z,-2.28
2023-02-21T05:44:15.533Z,-2.44
2023-02-21T05:45:15.536Z,-2.61
2023-02-21T05:46:15.588Z,-2.28
2023-02-21T05:47:15.550Z,-2.28
2023-02-21T05:48:15.537Z,-2.28
2023-02-21T05:49:15.551Z,-2.44
2023-02-21T05:50:15.548Z,-2.72
2023-02-21T05:51:15.861Z,-2.61
2023-02-21T05:52:15.551Z,-2.28
2023-02-21T05:53:15.531Z,-2.44
2023-02-21T05:54:15.537Z,-2.44
2023-02-21T05:55:15.536Z,-2.61
2023-02-21T05:56:15.539Z,-2.72
2023-02-21T05:57:15.543Z,-2.72
2023-02-21T05:58:15.567Z,-2.44
2023-02-21T05:59:15.538Z,-2.61
2023-02-21T06:00:15.533Z,-2.28
2023-02-21T06:01:15.824Z,-2.61
2023-02-21T06:02:15.574Z,-2.61
2023-02-21T06:03:15.568Z,-3.06
2023-02-21T06:04:15.538Z,-2.72
2023-02-21T06:05:15.530Z,-3.17
2023-02-21T06:06:15.566Z,-2.72
2023-02-21T06:07:15.528Z,-2.89
2023-02-21T06:08:15.531Z,-3.17
2023-02-21T06:09:15.541Z,-3.06
2023-02-21T06:10:15.550Z,-3.17
2023-02-21T06:11:15.833Z,-3.17
2023-02-21T06:12:15.534Z,-3.06
2023-02-21T06:13:15.542Z,-3.28
2023-02-21T06:14:15.546Z,-3.28
2023-02-21T06:15:15.543Z,-3.17
2023-02-21T06:16:15.548Z,-2.89
2023-02-21T06:17:15.556Z,-3.06
2023-02-21T06:18:15.569Z,-2.89
2023-02-21T06:19:15.570Z,-2.44
2023-02-21T06:20:15.553Z,-2.61
2023-02-21T06:21:15.864Z,-2.61
2023-02-21T06:22:15.601Z,-3.17
2023-02-21T06:23:15.572Z,-2.17
2023-02-21T06:24:15.577Z,-2.17
2023-02-21T06:25:15.576Z,-2.17
2023-02-21T06:26:15.562Z,-2.17
2023-02-21T06:27:15.575Z,-2.28
2023-02-21T06:28:15.570Z,-2.17
2023-02-21T06:29:15.563Z,-2.28
2023-02-21T06:30:15.626Z,-2.72
2023-02-21T06:31:15.830Z,-2.28
2023-02-21T06:32:15.638Z,-1.83
2023-02-21T06:33:15.567Z,-1.44
2023-02-21T06:34:15.583Z,-0.83
2023-02-21T06:35:15.581Z,-0.83
2023-02-21T06:36:15.573Z,-0.39
2023-02-21T06:37:15.573Z,-0.17
2023-02-21T06:38:15.602Z,0.44
2023-02-21T06:39:15.584Z,0.61
2023-02-21T06:40:15.591Z,0.89
2023-02-21T06:41:15.772Z,1.72
2023-02-21T06:42:15.608Z,2
2023-02-21T06:43:15.585Z,1.72
2023-02-21T06:44:15.593Z,1.72
2023-02-21T06:45:15.591Z,1.89
2023-02-21T06:46:15.641Z,1.61
2023-02-21T06:47:15.585Z,2.17
2023-02-21T06:48:15.588Z,2.28
2023-02-21T06:49:15.601Z,2.61
2023-02-21T06:50:15.592Z,2.61
2023-02-21T06:51:15.876Z,3
2023-02-21T06:52:15.605Z,2.89
2023-02-21T06:53:15.634Z,2.61
2023-02-21T06:54:15.619Z,2.61
2023-02-21T06:55:15.594Z,2.72
2023-02-21T06:56:15.599Z,3
2023-02-21T06:57:15.587Z,3
2023-02-21T06:58:15.605Z,3.17
2023-02-21T06:59:15.590Z,2.89
2023-02-21T07:00:15.603Z,2.17
2023-02-21T07:01:15.945Z,2.61
2023-02-21T07:02:15.602Z,2.17
2023-02-21T07:03:15.604Z,2.17
2023-02-21T07:04:15.657Z,1.72
2023-02-21T07:05:15.597Z,1.5
2023-02-21T07:06:15.611Z,1.72
2023-02-21T07:07:15.608Z,1.5
2023-02-21T07:08:15.600Z,1.06
2023-02-21T07:09:15.600Z,0.89
2023-02-21T07:10:15.635Z,0.61
2023-02-21T07:11:15.931Z,0.44
2023-02-21T07:12:15.610Z,-0.28
2023-02-21T07:13:15.606Z,0
2023-02-21T07:14:15.634Z,-0.67
2023-02-21T07:15:15.609Z,-0.39
2023-02-21T07:16:15.647Z,-0.17
2023-02-21T07:17:15.609Z,-0.17
2023-02-21T07:18:15.606Z,0
2023-02-21T07:19:15.612Z,-0.17
2023-02-21T07:20:15.606Z,-0.17
2023-02-21T07:21:15.983Z,-0.56
2023-02-21T07:22:15.617Z,-1
2023-02-21T07:23:15.611Z,-0.56
2023-02-21T07:24:15.616Z,-1
2023-02-21T07:25:15.610Z,-0.67
2023-02-21T07:26:15.645Z,-0.83
2023-02-21T07:27:15.618Z,-0.56
2023-02-21T07:28:15.616Z,-0.39
2023-02-21T07:29:15.651Z,-0.39
2023-02-21T07:30:15.640Z,-0.67
2023-02-21T07:31:17.554Z,-0.83
2023-02-21T07:32:15.627Z,-0.67
2023-02-21T07:33:15.640Z,-0.56
2023-02-21T07:34:15.617Z,-0.39
2023-02-21T07:35:15.623Z,-0.56
2023-02-21T07:36:15.617Z,-0.56
2023-02-21T07:37:15.630Z,-0.28
2023-02-21T07:38:15.625Z,-0.56
2023-02-21T07:39:15.634Z,-1
2023-02-21T07:40:15.614Z,-1
2023-02-21T07:41:15.890Z,-1
2023-02-21T07:42:15.654Z,-1
2023-02-21T07:43:15.639Z,-0.56
2023-02-21T07:44:15.641Z,-0.39
2023-02-21T07:45:15.631Z,-0.83
2023-02-21T07:46:15.652Z,-0.56
2023-02-21T07:47:15.634Z,-0.83
2023-02-21T07:48:15.641Z,-0.56
2023-02-21T07:49:15.640Z,-0.83
2023-02-21T07:50:15.644Z,0
2023-02-21T07:51:15.915Z,0.44
2023-02-21T07:52:15.634Z,0.28
2023-02-21T07:53:15.627Z,0.28
2023-02-21T07:54:15.649Z,1.17
2023-02-21T07:55:15.641Z,0.61
2023-02-21T07:56:15.644Z,0
2023-02-21T07:57:15.640Z,-0.39
2023-02-21T07:58:15.671Z,-0.39
2023-02-21T07:59:15.639Z,-0.39
2023-02-21T08:00:15.651Z,-0.39
2023-02-21T08:01:15.980Z,-0.67
2023-02-21T08:02:15.639Z,-0.17
2023-02-21T08:03:15.661Z,0.28
2023-02-21T08:04:15.650Z,0.89
2023-02-21T08:05:15.654Z,1.06
2023-02-21T08:06:15.644Z,0.44
2023-02-21T08:07:15.647Z,0.44
2023-02-21T08:08:15.648Z,0.89
2023-02-21T08:09:15.664Z,1.06
2023-02-21T08:10:17.515Z,1.17
2023-02-21T08:11:15.860Z,1.06
2023-02-21T08:12:15.654Z,1.33
2023-02-21T08:13:15.638Z,0.89
2023-02-21T08:14:15.692Z,0.61
2023-02-21T08:15:15.648Z,0.89
2023-02-21T08:16:15.675Z,0.89
2023-02-21T08:17:15.638Z,1.33
2023-02-21T08:18:15.637Z,0.89
2023-02-21T08:19:15.650Z,0.72
2023-02-21T08:20:15.651Z,1.17
2023-02-21T08:21:16.008Z,0.89
2023-02-21T08:22:15.654Z,0.44
2023-02-21T08:23:15.644Z,0.28
2023-02-21T08:24:15.645Z,1.06
2023-02-21T08:25:15.642Z,1.5
2023-02-21T08:26:15.647Z,1.72
2023-02-21T08:27:15.646Z,1.06
2023-02-21T08:28:15.640Z,1.17
2023-02-21T08:29:15.707Z,1.33
2023-02-21T08:30:15.692Z,1.72
2023-02-21T08:31:15.962Z,2
2023-02-21T08:32:15.699Z,2
2023-02-21T08:33:15.650Z,1.72
2023-02-21T08:34:15.647Z,1.89
2023-02-21T08:35:15.665Z,1.61
2023-02-21T08:36:15.643Z,2.17
2023-02-21T08:37:15.642Z,2.61
2023-02-21T08:38:15.640Z,2.89
2023-02-21T08:39:15.644Z,2.44
2023-02-21T08:40:15.656Z,2.89
2023-02-21T08:41:15.890Z,2.72
2023-02-21T08:42:15.652Z,2.72
2023-02-21T08:43:15.649Z,2.72
2023-02-21T08:44:15.659Z,3
2023-02-21T08:45:15.642Z,3
2023-02-21T08:46:15.704Z,2.28
2023-02-21T08:47:15.655Z,2.61
2023-02-21T08:48:15.655Z,3
2023-02-21T08:49:15.655Z,3.44
2023-02-21T08:50:15.663Z,3.33
2023-02-21T08:51:15.877Z,3.17
2023-02-21T08:52:15.673Z,3.44
2023-02-21T08:53:15.670Z,3.33
2023-02-21T08:54:15.662Z,3.33
2023-02-21T08:55:15.656Z,2.72
2023-02-21T08:56:15.663Z,2.72
2023-02-21T08:57:15.660Z,3.72
2023-02-21T08:58:15.656Z,3.44
2023-02-21T08:59:15.699Z,3.56
2023-02-21T09:00:15.659Z,3.72
2023-02-21T09:01:15.999Z,3.83
2023-02-21T09:02:15.731Z,3.44
2023-02-21T09:03:15.655Z,3.72
2023-02-21T09:04:15.671Z,4.17
2023-02-21T09:05:15.667Z,4.72
2023-02-21T09:06:15.655Z,5.17
2023-02-21T09:07:15.658Z,5.17
2023-02-21T09:08:15.678Z,5.17
2023-02-21T09:09:15.659Z,5
2023-02-21T09:10:15.657Z,4.89
2023-02-21T09:11:15.916Z,5
2023-02-21T09:12:15.679Z,5.44
2023-02-21T09:13:15.664Z,5.17
2023-02-21T09:14:15.672Z,6
2023-02-21T09:15:15.665Z,5.83
2023-02-21T09:16:15.698Z,6
2023-02-21T09:17:15.671Z,5.83
2023-02-21T09:18:15.693Z,5.83
2023-02-21T09:19:15.672Z,5.17
2023-02-21T09:20:15.664Z,5.83
2023-02-21T09:21:15.945Z,5.61
2023-02-21T09:22:15.675Z,5
2023-02-21T09:23:15.667Z,4.72
2023-02-21T09:24:15.673Z,4.44
2023-02-21T09:25:15.665Z,5
2023-02-21T09:26:15.674Z,5.72
2023-02-21T09:27:15.669Z,5
2023-02-21T09:28:15.678Z,4.28
2023-02-21T09:29:15.665Z,3.83
2023-02-21T09:30:15.737Z,3.44
2023-02-21T09:31:16.000Z,4.17
2023-02-21T09:32:15.713Z,3.72
2023-02-21T09:33:15.666Z,3.72
2023-02-21T09:34:15.723Z,4.44
2023-02-21T09:35:15.682Z,4.89
2023-02-21T09:36:15.680Z,5.17
2023-02-21T09:37:15.674Z,5.44
2023-02-21T09:38:15.677Z,6.39
2023-02-21T09:39:15.680Z,6.28
2023-02-21T09:40:15.685Z,6
2023-02-21T09:41:15.983Z,5.33
2023-02-21T09:42:15.686Z,4.72
2023-02-21T09:43:15.681Z,4.89
2023-02-21T09:44:15.674Z,5.17
2023-02-21T09:45:15.676Z,5.17
2023-02-21T09:46:15.684Z,4.89
2023-02-21T09:47:15.674Z,5.17
2023-02-21T09:48:15.688Z,5.61
2023-02-21T09:49:15.683Z,6
2023-02-21T09:50:15.709Z,6.28
2023-02-21T09:51:15.967Z,5.72
2023-02-21T09:52:15.676Z,5.61
2023-02-21T09:53:15.684Z,5.61
2023-02-21T09:54:15.692Z,5.33
2023-02-21T09:55:15.694Z,5.44
2023-02-21T09:56:15.679Z,5.33
2023-02-21T09:57:15.684Z,5.72
2023-02-21T09:58:15.685Z,5.33
2023-02-21T09:59:15.685Z,5.61
2023-02-21T10:00:15.688Z,5.72
2023-02-21T10:01:16.045Z,5.72
2023-02-21T10:02:15.701Z,6
2023-02-21T10:03:15.686Z,6
2023-02-21T10:04:15.746Z,6.39
2023-02-21T10:05:15.677Z,6.83
2023-02-21T10:06:15.742Z,6.72
2023-02-21T10:07:15.681Z,7.17
2023-02-21T10:08:15.683Z,7.72
2023-02-21T10:09:15.689Z,7.89
2023-02-21T10:10:15.693Z,7.44
2023-02-21T10:11:15.916Z,6.83
2023-02-21T10:12:15.692Z,6.39
2023-02-21T10:13:15.709Z,6.72
2023-02-21T10:14:15.683Z,7.17
2023-02-21T10:15:15.696Z,6.72
2023-02-21T10:16:15.741Z,6.72
2023-02-21T10:17:15.695Z,7.28
2023-02-21T10:18:17.274Z,7.72
2023-02-21T10:19:15.700Z,7.44
2023-02-21T10:20:15.704Z,7.44
2023-02-21T10:21:16.074Z,7
2023-02-21T10:22:15.728Z,7.17
2023-02-21T10:23:15.702Z,7.28
2023-02-21T10:24:15.687Z,7.28
2023-02-21T10:25:15.686Z,7.28
2023-02-21T10:26:15.681Z,7.72
2023-02-21T10:27:15.706Z,7.89
2023-02-21T10:28:15.691Z,7.89
2023-02-21T10:29:15.692Z,7
2023-02-21T10:30:15.748Z,7.72
2023-02-21T10:31:16.072Z,7.72
2023-02-21T10:32:15.736Z,7.89
2023-02-21T10:33:15.691Z,7.89
2023-02-21T10:34:15.706Z,8.17
2023-02-21T10:35:15.703Z,8.61
2023-02-21T10:36:15.695Z,8.61
2023-02-21T10:37:15.740Z,8.61
2023-02-21T10:38:15.741Z,8.33
2023-02-21T10:39:15.703Z,8.61
2023-02-21T10:40:15.705Z,8.44
2023-02-21T10:41:15.985Z,8.44
2023-02-21T10:42:15.697Z,8.61
2023-02-21T10:43:15.689Z,7.67
2023-02-21T10:44:15.695Z,7.44
2023-02-21T10:45:15.698Z,7.22
2023-02-21T10:46:15.750Z,7.5
2023-02-21T10:47:15.699Z,8.11
2023-02-21T10:48:15.703Z,8.17
2023-02-21T10:49:15.700Z,8
2023-02-21T10:50:15.705Z,8.39
2023-02-21T10:51:15.997Z,8.61
2023-02-21T10:52:15.699Z,8.67
2023-02-21T10:53:15.763Z,8.28
2023-02-21T10:54:15.720Z,8.39
2023-02-21T10:55:30.328Z,8.11
2023-02-21T10:56:16.082Z,8.28
2023-02-21T10:57:15.694Z,8.28
2023-02-21T10:58:15.702Z,8.61
2023-02-21T10:59:15.704Z,8.5
2023-02-21T11:00:15.698Z,8.78
2023-02-21T11:01:16.244Z,8.39
2023-02-21T11:02:15.726Z,8.61
2023-02-21T11:03:15.705Z,8.5
2023-02-21T11:04:15.706Z,8.94
2023-02-21T11:05:15.698Z,8.61
2023-02-21T11:06:15.700Z,8.5
2023-02-21T11:07:15.701Z,8.5
2023-02-21T11:08:15.704Z,9.06
2023-02-21T11:09:15.704Z,9.78
2023-02-21T11:10:15.755Z,9.67
2023-02-21T11:11:15.875Z,9.5
2023-02-21T11:12:15.728Z,9.5
2023-02-21T11:13:15.704Z,9.39
2023-02-21T11:14:15.699Z,9.5
2023-02-21T11:15:15.717Z,9.5
2023-02-21T11:16:15.815Z,10.22
2023-02-21T11:17:15.697Z,10.56
2023-02-21T11:18:15.693Z,9.5
2023-02-21T11:19:15.719Z,9.78
2023-02-21T11:20:15.704Z,10.56
2023-02-21T11:21:16.008Z,11
2023-02-21T11:22:15.701Z,10.39
2023-02-21T11:23:15.700Z,11
2023-02-21T11:24:15.713Z,11
2023-02-21T11:25:15.709Z,11
2023-02-21T11:26:15.734Z,11
2023-02-21T11:27:15.718Z,11.28
2023-02-21T11:28:15.701Z,10.22
2023-02-21T11:29:15.719Z,9.78
2023-02-21T11:30:15.729Z,10.11
2023-02-21T11:31:16.002Z,10.11
2023-02-21T11:32:15.703Z,10.11
2023-02-21T11:33:15.723Z,9.67
2023-02-21T11:34:15.726Z,10.11
2023-02-21T11:35:15.715Z,10.56
2023-02-21T11:36:15.705Z,10.11
2023-02-21T11:37:15.713Z,10.39
2023-02-21T11:38:15.714Z,10.56
2023-02-21T11:39:15.704Z,11
2023-02-21T11:40:15.764Z,10.83
2023-02-21T11:41:15.985Z,11.28
2023-02-21T11:42:15.760Z,11.11
2023-02-21T11:43:15.710Z,11.44
2023-02-21T11:44:15.717Z,11.72
2023-02-21T11:45:15.736Z,11.28
2023-02-21T11:46:15.769Z,11.28
2023-02-21T11:47:15.709Z,11.44
2023-02-21T11:48:15.705Z,11.28
2023-02-21T11:49:15.716Z,11.44
2023-02-21T11:50:15.720Z,10.83
2023-02-21T11:51:16.018Z,11
2023-02-21T11:52:15.716Z,10.56
2023-02-21T11:53:15.718Z,10.67
2023-02-21T11:54:15.722Z,11.61
2023-02-21T11:55:15.714Z,12.11
2023-02-21T11:56:15.717Z,11.94
2023-02-21T11:57:15.708Z,12.56
2023-02-21T11:58:15.749Z,12.72
2023-02-21T11:59:15.720Z,12.28
2023-02-21T12:00:15.721Z,12.72
2023-02-21T12:01:16.043Z,12.56
2023-02-21T12:02:15.726Z,12.72
2023-02-21T12:03:15.716Z,12.56
2023-02-21T12:04:15.718Z,12.44
2023-02-21T12:05:15.724Z,12.28
2023-02-21T12:06:15.768Z,11.72
2023-02-21T12:07:15.723Z,11.44
2023-02-21T12:08:15.711Z,11.83
2023-02-21T12:09:15.717Z,11.72
2023-02-21T12:10:15.711Z,11.72
2023-02-21T12:11:15.968Z,11.44
2023-02-21T12:12:15.752Z,11.83
2023-02-21T12:13:15.728Z,12.5
2023-02-21T12:14:15.764Z,12.72
2023-02-21T12:15:15.714Z,12.89
2023-02-21T12:16:15.735Z,12.11
2023-02-21T12:17:15.724Z,11.44
2023-02-21T12:18:15.723Z,12.11
2023-02-21T12:19:15.720Z,12.11
2023-02-21T12:20:15.722Z,12.89
2023-02-21T12:21:15.976Z,12.72
2023-02-21T12:22:15.720Z,13.17
2023-02-21T12:23:15.732Z,13.06
2023-02-21T12:24:15.716Z,12.11
2023-02-21T12:25:15.740Z,12.44
2023-02-21T12:26:15.710Z,12.44
2023-02-21T12:27:15.715Z,13.17
2023-02-21T12:28:15.724Z,13.78
2023-02-21T12:29:15.725Z,14.56
2023-02-21T12:30:15.784Z,14.28
2023-02-21T12:31:16.066Z,13.06
2023-02-21T12:32:15.780Z,11.94
2023-02-21T12:33:15.720Z,12.89
2023-02-21T12:34:15.718Z,13.17
2023-02-21T12:35:15.734Z,13.17
2023-02-21T12:36:15.730Z,14.06
2023-02-21T12:37:15.721Z,13.5
2023-02-21T12:38:15.724Z,12.89
2023-02-21T12:39:15.740Z,11.94
2023-02-21T12:40:15.754Z,12.33
2023-02-21T12:41:15.963Z,12.5
2023-02-21T12:42:15.718Z,12.94
2023-02-21T12:43:15.734Z,12.5
2023-02-21T12:44:15.737Z,12.33
2023-02-21T12:45:15.715Z,12.94
2023-02-21T12:46:15.806Z,12.94
2023-02-21T12:47:15.719Z,13.44
2023-02-21T12:48:15.727Z,14.22
2023-02-21T12:49:15.725Z,14.89
2023-02-21T12:50:15.729Z,15.39
2023-02-21T12:51:15.957Z,15.56
2023-02-21T12:52:15.733Z,15.22
2023-02-21T12:53:15.717Z,15.06
2023-02-21T12:54:15.741Z,15.44
2023-02-21T12:55:15.718Z,15.56
2023-02-21T12:56:15.729Z,15.17
2023-02-21T12:57:15.733Z,14.78
2023-02-21T12:58:15.726Z,14.44
2023-02-21T12:59:15.736Z,15.17
2023-02-21T13:00:15.731Z,14.78
2023-02-21T13:01:16.561Z,15.17
2023-02-21T13:02:15.756Z,15.17
2023-02-21T13:03:15.765Z,15.17
2023-02-21T13:04:15.726Z,14.78
2023-02-21T13:05:15.744Z,15.17
2023-02-21T13:06:15.727Z,15.17
2023-02-21T13:07:15.733Z,15.28